Time;durP1;ratioP1;P1;durP2;ratioP2;P2;SDS_P1;SDS_P2;PMS_P1;PMS_P2;Temp;Humidity;BMP_temperature;BMP_pressure;BME280_temperature;BME280_humidity;BME280_pressure;Samples;Min_cycle;Max_cycle;Signal;HPM_P1;HPM_P2
2020/12/25 00:01:11;;;;;;;3.97;1.90;;;23.00;36.80;;;;;;6180720;28;82294;-50
2020/12/25 00:04:11;;;;;;;3.20;1.65;;;23.10;37.00;;;;;;6176328;28;80407;-55
2020/12/25 00:07:12;;;;;;;2.53;1.90;;;23.10;37.40;;;;;;6178057;27;81310;-54
2020/12/25 00:10:12;;;;;;;3.17;1.70;;;23.10;37.30;;;;;;6176842;28;81203;-55
2020/12/25 00:13:13;;;;;;;2.85;1.63;;;23.10;37.40;;;;;;6178733;27;80942;-53
2020/12/25 00:16:13;;;;;;;3.65;2.17;;;23.00;37.20;;;;;;6177123;28;80675;-53
2020/12/25 00:19:14;;;;;;;4.47;1.80;;;23.10;37.10;;;;;;6177015;28;81528;-54
2020/12/25 00:22:14;;;;;;;3.70;1.85;;;23.00;37.00;;;;;;6172534;28;80577;-54
2020/12/25 00:25:15;;;;;;;2.85;1.98;;;23.00;37.20;;;;;;6178596;27;80918;-55
2020/12/25 00:28:15;;;;;;;5.53;1.88;;;23.00;37.40;;;;;;6176201;28;80953;-53
2020/12/25 00:31:16;;;;;;;4.25;1.90;;;23.00;37.20;;;;;;6178642;27;80793;-55
2020/12/25 00:34:16;;;;;;;3.35;1.50;;;23.00;37.10;;;;;;6172473;28;82612;-51
2020/12/25 00:37:17;;;;;;;2.58;1.70;;;23.00;37.30;;;;;;6153547;28;80321;-53
2020/12/25 00:40:17;;;;;;;3.25;1.90;;;23.00;37.10;;;;;;6179568;28;80602;-50
2020/12/25 00:43:18;;;;;;;3.22;2.00;;;23.00;37.10;;;;;;6178593;27;83447;-52
2020/12/25 00:46:18;;;;;;;2.97;1.58;;;23.00;36.90;;;;;;6181027;28;81198;-54
2020/12/25 00:49:19;;;;;;;3.08;1.63;;;23.00;37.30;;;;;;6180441;27;83453;-54
2020/12/25 00:52:20;;;;;;;3.88;1.90;;;23.00;37.10;;;;;;6180116;28;83194;-54
2020/12/25 00:55:24;;;;;;;3.20;1.83;;;23.00;37.10;;;;;;6171658;27;83868;-53
2020/12/25 00:58:25;;;;;;;3.85;1.88;;;23.00;36.80;;;;;;6181307;28;81025;-52
2020/12/25 01:01:26;;;;;;;3.17;1.88;;;22.90;36.80;;;;;;6179234;27;81439;-55
2020/12/25 01:04:26;;;;;;;2.72;1.90;;;22.90;36.70;;;;;;6181452;28;80671;-54
2020/12/25 01:07:27;;;;;;;2.47;1.55;;;22.90;36.60;;;;;;6182026;28;80600;-55
2020/12/25 01:10:27;;;;;;;2.97;1.58;;;22.90;36.60;;;;;;6182972;27;80599;-53
2020/12/25 01:13:28;;;;;;;3.30;1.75;;;23.00;36.50;;;;;;6181932;28;81260;-55
2020/12/25 01:16:28;;;;;;;3.95;1.83;;;22.90;36.60;;;;;;6182754;27;80412;-54
2020/12/25 01:19:29;;;;;;;2.97;1.40;;;22.90;36.50;;;;;;6180236;28;81008;-55
2020/12/25 01:22:29;;;;;;;2.78;1.50;;;22.90;36.50;;;;;;6179190;28;83939;-55
2020/12/25 01:25:30;;;;;;;3.22;1.70;;;22.90;36.40;;;;;;6181216;27;80331;-54
2020/12/25 01:28:30;;;;;;;2.97;1.70;;;22.90;36.40;;;;;;6181119;28;80385;-53
2020/12/25 01:31:31;;;;;;;2.88;1.52;;;22.90;36.40;;;;;;6181401;27;81326;-55
2020/12/25 01:34:31;;;;;;;2.20;1.38;;;22.90;36.20;;;;;;6181334;28;80537;-55
2020/12/25 01:37:32;;;;;;;2.63;1.63;;;22.80;36.10;;;;;;6170263;27;82594;-55
2020/12/25 01:40:32;;;;;;;3.78;1.50;;;22.80;36.20;;;;;;6181505;28;81106;-53
2020/12/25 01:43:33;;;;;;;2.95;1.67;;;22.80;36.10;;;;;;6179959;28;80233;-56
2020/12/25 01:46:33;;;;;;;3.53;1.58;;;22.80;36.00;;;;;;6170882;27;80422;-54
2020/12/25 01:49:34;;;;;;;2.10;1.27;;;22.80;36.10;;;;;;6181167;28;80613;-55
2020/12/25 01:52:34;;;;;;;1.90;1.48;;;22.80;36.00;;;;;;6180653;27;82943;-55
2020/12/25 01:55:35;;;;;;;4.43;1.80;;;22.80;36.10;;;;;;6182852;28;80636;-54
2020/12/25 01:58:36;;;;;;;2.92;1.95;;;22.80;36.20;;;;;;6196437;27;84894;-55
2020/12/25 02:01:36;;;;;;;4.18;1.80;;;22.80;36.30;;;;;;6188999;28;81002;-51
2020/12/25 02:04:37;;;;;;;3.42;1.83;;;22.80;36.30;;;;;;6181400;28;80838;-55
2020/12/25 02:07:37;;;;;;;3.35;1.90;;;22.80;36.40;;;;;;6180392;28;80391;-54
2020/12/25 02:10:38;;;;;;;2.63;1.75;;;22.80;36.30;;;;;;6179828;27;80893;-52
2020/12/25 02:13:38;;;;;;;2.85;1.88;;;22.80;36.20;;;;;;6177713;28;81907;-55
2020/12/25 02:16:39;;;;;;;2.15;1.52;;;22.80;36.30;;;;;;6180628;27;80437;-54
2020/12/25 02:19:39;;;;;;;4.60;1.90;;;22.80;36.20;;;;;;6179964;28;82502;-54
2020/12/25 02:22:40;;;;;;;3.55;2.10;;;22.80;37.00;;;;;;6179831;27;80966;-52
2020/12/25 02:25:40;;;;;;;3.80;2.03;;;22.80;36.40;;;;;;6180303;28;81022;-54
2020/12/25 02:28:41;;;;;;;3.75;1.83;;;22.80;36.30;;;;;;6176929;27;81461;-55
2020/12/25 02:31:41;;;;;;;3.85;1.67;;;22.80;36.20;;;;;;6179972;28;81589;-53
2020/12/25 02:34:42;;;;;;;3.95;2.03;;;22.80;36.30;;;;;;6180186;28;80429;-56
2020/12/25 02:37:42;;;;;;;3.38;1.80;;;22.80;36.30;;;;;;6179993;27;80485;-55
2020/12/25 02:40:43;;;;;;;3.40;1.73;;;22.80;36.20;;;;;;6173136;28;80821;-55
2020/12/25 02:43:43;;;;;;;5.05;2.00;;;22.80;36.20;;;;;;6170662;27;81387;-55
2020/12/25 02:46:44;;;;;;;2.25;1.83;;;22.80;36.20;;;;;;6172721;28;81199;-55
2020/12/25 02:50:03;;;;;;;4.13;1.95;;;22.80;36.20;;;;;;6192061;27;80873;-56
2020/12/25 02:53:04;;;;;;;3.17;1.90;;;22.80;36.20;;;;;;6189156;28;80979;-55
2020/12/25 02:56:04;;;;;;;3.33;1.90;;;22.80;36.30;;;;;;6169773;28;83247;-55
2020/12/25 02:59:05;;;;;;;2.97;1.85;;;22.70;36.20;;;;;;6163535;28;80809;-54
2020/12/25 03:02:24;;;;;;;3.85;2.20;;;22.70;36.20;;;;;;6187738;28;80722;-54
2020/12/25 03:05:24;;;;;;;2.78;1.95;;;22.70;36.20;;;;;;6177612;28;82617;-54
2020/12/25 03:08:43;;;;;;;3.17;1.98;;;22.70;36.10;;;;;;6179050;28;80729;-56
2020/12/25 03:11:44;;;;;;;3.67;2.00;;;22.70;36.10;;;;;;6173370;28;81503;-54
2020/12/25 03:14:44;;;;;;;5.28;1.90;;;22.70;36.10;;;;;;6178781;28;81470;-56
2020/12/25 03:18:04;;;;;;;4.85;2.53;;;22.70;36.10;;;;;;6172330;28;80373;-53
2020/12/25 03:21:04;;;;;;;4.00;2.13;;;22.70;36.10;;;;;;6180082;28;80498;-54
2020/12/25 03:24:05;;;;;;;3.97;2.40;;;22.60;36.10;;;;;;6178439;27;80598;-55
2020/12/25 03:27:05;;;;;;;2.78;1.95;;;22.70;36.00;;;;;;6179917;28;81060;-55
2020/12/25 03:30:06;;;;;;;3.72;2.15;;;22.70;36.20;;;;;;6178736;27;80608;-53
2020/12/25 03:33:06;;;;;;;4.75;2.42;;;22.60;36.00;;;;;;6179576;28;82562;-50
2020/12/25 03:36:07;;;;;;;3.72;2.15;;;22.60;36.10;;;;;;6172921;27;81158;-54
2020/12/25 03:39:07;;;;;;;3.88;2.10;;;22.70;35.90;;;;;;6177400;28;81886;-54
2020/12/25 03:42:08;;;;;;;4.32;1.92;;;22.70;36.00;;;;;;6176384;27;83075;-52
2020/12/25 03:45:09;;;;;;;3.55;2.08;;;22.60;36.20;;;;;;6178404;28;80535;-55
2020/12/25 03:48:09;;;;;;;3.78;2.20;;;22.60;36.10;;;;;;6165305;27;81339;-53
2020/12/25 03:51:10;;;;;;;5.45;2.58;;;22.60;36.10;;;;;;6177728;28;81452;-54
2020/12/25 03:54:10;;;;;;;3.47;1.88;;;22.60;36.10;;;;;;6169030;27;80485;-55
2020/12/25 03:57:11;;;;;;;5.00;2.17;;;22.70;36.20;;;;;;6176615;28;80508;-55
2020/12/25 04:00:12;;;;;;;3.25;1.88;;;22.70;36.30;;;;;;6179442;27;80531;-51
2020/12/25 04:03:13;;;;;;;3.45;2.20;;;22.60;36.30;;;;;;6177379;28;80687;-54
2020/12/25 04:06:14;;;;;;;4.30;2.15;;;22.70;36.30;;;;;;6177449;27;80283;-54
2020/12/25 04:09:14;;;;;;;3.72;2.10;;;22.60;36.40;;;;;;6178524;28;81511;-54
2020/12/25 04:12:34;;;;;;;2.85;1.60;;;22.60;36.30;;;;;;6173851;27;80718;-53
2020/12/25 04:15:34;;;;;;;5.13;1.83;;;22.70;36.30;;;;;;6159302;28;88340;-54
2020/12/25 04:18:35;;;;;;;3.88;2.40;;;22.60;36.10;;;;;;6158024;28;80700;-55
2020/12/25 04:21:54;;;;;;;3.05;1.65;;;22.70;36.30;;;;;;6171352;28;81088;-51
2020/12/25 04:24:54;;;;;;;3.15;2.00;;;22.70;36.20;;;;;;6177076;28;89048;-51
2020/12/25 04:27:55;;;;;;;3.65;2.00;;;22.70;36.20;;;;;;6175928;27;80758;-55
2020/12/25 04:30:55;;;;;;;2.75;1.80;;;22.70;36.20;;;;;;6173814;28;80661;-55
2020/12/25 04:33:56;;;;;;;3.03;2.00;;;22.80;36.20;;;;;;6176133;28;80430;-56
2020/12/25 04:36:57;;;;;;;2.80;1.70;;;22.80;36.00;;;;;;6177634;27;81903;-55
2020/12/25 04:40:16;;;;;;;2.67;1.80;;;22.80;35.60;;;;;;6143627;28;84474;-54
2020/12/25 04:43:17;;;;;;;3.03;1.63;;;22.90;35.40;;;;;;6152597;28;80755;-55
2020/12/25 04:46:17;;;;;;;2.20;1.55;;;22.90;35.20;;;;;;6177690;28;80627;-51
2020/12/25 04:49:18;;;;;;;2.53;1.60;;;22.90;35.20;;;;;;6172083;28;81686;-54
2020/12/25 04:52:18;;;;;;;3.30;1.73;;;23.00;35.20;;;;;;6176928;27;80042;-50
2020/12/25 04:55:19;;;;;;;5.15;2.00;;;23.00;35.20;;;;;;6177222;28;80508;-53
2020/12/25 04:58:19;;;;;;;2.42;1.40;;;23.00;35.10;;;;;;6169274;28;84567;-54
2020/12/25 05:01:20;;;;;;;3.08;1.80;;;23.00;35.10;;;;;;6169083;28;80763;-55
2020/12/25 05:04:20;;;;;;;3.53;1.63;;;23.10;35.30;;;;;;6153298;28;80131;-55
2020/12/25 05:07:21;;;;;;;2.95;1.55;;;23.10;35.30;;;;;;6176049;28;80409;-53
2020/12/25 05:10:22;;;;;;;2.75;1.70;;;23.10;35.20;;;;;;6174694;28;81027;-54
2020/12/25 05:13:22;;;;;;;3.88;1.85;;;23.10;35.20;;;;;;6151557;28;81973;-55
2020/12/25 05:16:23;;;;;;;2.67;1.40;;;23.20;35.40;;;;;;6155566;28;80752;-55
2020/12/25 05:19:23;;;;;;;3.22;1.70;;;23.10;35.40;;;;;;6174942;28;81056;-54
2020/12/25 05:22:24;;;;;;;2.95;1.45;;;23.20;35.50;;;;;;6168730;27;80488;-55
2020/12/25 05:25:24;;;;;;;2.60;1.80;;;23.10;35.50;;;;;;6169417;28;89867;-50
2020/12/25 05:28:25;;;;;;;3.42;1.63;;;23.20;35.60;;;;;;6176014;27;81442;-51
2020/12/25 05:31:25;;;;;;;2.15;1.25;;;23.10;35.50;;;;;;6179132;28;80718;-55
2020/12/25 05:34:26;;;;;;;2.05;1.23;;;23.20;35.60;;;;;;6178501;27;80616;-50
2020/12/25 05:37:26;;;;;;;8.05;1.67;;;23.20;35.40;;;;;;6157762;28;81012;-51
2020/12/25 05:40:45;;;;;;;1.85;1.30;;;23.20;35.70;;;;;;6160447;28;88618;-54
2020/12/25 05:43:46;;;;;;;3.28;1.55;;;23.40;36.30;;;;;;6181723;28;81338;-53
2020/12/25 05:46:46;;;;;;;2.05;1.15;;;23.40;36.40;;;;;;6197801;27;80962;-50
2020/12/25 05:50:05;;;;;;;2.05;1.40;;;23.40;36.70;;;;;;6170786;28;80789;-56
2020/12/25 05:53:06;;;;;;;2.80;1.50;;;23.40;36.70;;;;;;6193342;27;80418;-55
2020/12/25 05:56:06;;;;;;;3.40;1.63;;;23.50;36.60;;;;;;6170999;28;80727;-54
2020/12/25 05:59:07;;;;;;;3.42;1.83;;;23.50;36.80;;;;;;6170276;28;81038;-56
2020/12/25 06:02:07;;;;;;;3.50;1.13;;;23.50;36.50;;;;;;6182437;28;80850;-57
2020/12/25 06:05:08;;;;;;;2.80;1.50;;;23.50;36.70;;;;;;6179947;27;80363;-56
2020/12/25 06:08:08;;;;;;;5.47;1.45;;;23.50;36.60;;;;;;6180071;28;81386;-54
2020/12/25 06:11:09;;;;;;;3.13;1.35;;;23.50;36.90;;;;;;6179982;27;80691;-55
2020/12/25 06:14:10;;;;;;;3.15;1.55;;;23.50;37.00;;;;;;6179801;28;83116;-55
2020/12/25 06:17:10;;;;;;;3.33;1.55;;;23.50;37.10;;;;;;6180921;27;81076;-53
2020/12/25 06:20:11;;;;;;;7.80;1.67;;;23.50;37.10;;;;;;6180824;28;80383;-55
2020/12/25 06:23:11;;;;;;;31.45;6.00;;;23.60;37.40;;;;;;6180355;27;80915;-50
2020/12/25 06:26:12;;;;;;;22.67;4.15;;;23.60;37.40;;;;;;6172564;28;80631;-53
2020/12/25 06:29:12;;;;;;;22.55;3.00;;;23.60;38.40;;;;;;6178778;27;81242;-51
2020/12/25 06:32:13;;;;;;;26.85;3.10;;;23.60;38.30;;;;;;6177716;28;81434;-53
2020/12/25 06:35:13;;;;;;;16.55;3.08;;;23.70;38.50;;;;;;6179459;27;80457;-53
2020/12/25 06:38:14;;;;;;;9.95;3.08;;;23.70;38.90;;;;;;6175053;28;84516;-55
2020/12/25 06:41:14;;;;;;;6.70;2.53;;;23.70;39.00;;;;;;6183343;28;90980;-54
2020/12/25 06:44:15;;;;;;;12.68;3.47;;;23.80;39.20;;;;;;6180438;28;80686;-54
2020/12/25 06:47:15;;;;;;;15.82;3.35;;;23.80;39.10;;;;;;6172363;28;82651;-51
2020/12/25 06:50:16;;;;;;;6.32;2.67;;;23.80;39.20;;;;;;6179213;28;80456;-55
2020/12/25 06:53:16;;;;;;;18.02;3.22;;;23.80;38.70;;;;;;6177815;27;80719;-54
2020/12/25 06:56:17;;;;;;;8.00;2.67;;;23.70;39.00;;;;;;6169390;28;81799;-52
2020/12/25 06:59:18;;;;;;;8.98;2.28;;;23.80;38.70;;;;;;6163654;28;80993;-54
2020/12/25 07:02:18;;;;;;;7.18;2.20;;;23.80;38.40;;;;;;6177725;28;82082;-55
2020/12/25 07:05:19;;;;;;;15.27;3.25;;;23.80;38.70;;;;;;6178604;28;80738;-51
2020/12/25 07:08:19;;;;;;;6.15;2.38;;;23.80;38.80;;;;;;6176976;27;81563;-54
2020/12/25 07:11:20;;;;;;;6.53;2.00;;;23.80;38.70;;;;;;6179429;28;84066;-54
2020/12/25 07:14:20;;;;;;;8.98;2.33;;;23.80;38.80;;;;;;6180080;27;81167;-57
2020/12/25 07:17:21;;;;;;;8.52;2.65;;;23.80;38.60;;;;;;6177148;28;80386;-55
2020/12/25 07:20:21;;;;;;;4.30;2.20;;;23.80;38.10;;;;;;6177525;28;80755;-55
2020/12/25 07:23:22;;;;;;;6.15;2.30;;;23.70;38.10;;;;;;6175888;28;83419;-56
2020/12/25 07:26:22;;;;;;;5.13;2.22;;;23.70;38.30;;;;;;6174518;28;80585;-61
2020/12/25 07:29:23;;;;;;;6.20;2.45;;;23.70;37.90;;;;;;6178438;28;80837;-60
2020/12/25 07:32:23;;;;;;;5.82;2.72;;;23.70;37.80;;;;;;6177790;28;80982;-60
2020/12/25 07:35:24;;;;;;;5.30;2.20;;;23.70;37.60;;;;;;6175103;28;80700;-55
2020/12/25 07:38:24;;;;;;;4.88;2.20;;;23.70;37.90;;;;;;6176083;28;80874;-56
2020/12/25 07:41:25;;;;;;;5.43;2.20;;;23.60;37.80;;;;;;6176429;27;81268;-55
2020/12/25 07:44:25;;;;;;;5.75;2.55;;;23.70;37.80;;;;;;6176175;28;81609;-53
2020/12/25 07:47:26;;;;;;;6.75;2.30;;;23.80;38.10;;;;;;6178018;27;81571;-54
2020/12/25 07:50:26;;;;;;;4.43;2.03;;;23.70;38.40;;;;;;6177244;28;81450;-54
2020/12/25 07:53:30;;;;;;;4.82;2.60;;;23.70;38.60;;;;;;6174783;28;80888;-55
2020/12/25 07:56:31;;;;;;;3.67;2.28;;;23.70;38.40;;;;;;6173879;27;80776;-55
2020/12/25 07:59:31;;;;;;;3.30;2.15;;;23.80;38.40;;;;;;6165900;28;82010;-55
2020/12/25 08:02:32;;;;;;;6.45;2.17;;;23.70;38.30;;;;;;6179259;27;80870;-55
2020/12/25 08:05:33;;;;;;;3.42;1.80;;;23.80;38.30;;;;;;6178396;28;80535;-53
2020/12/25 08:08:33;;;;;;;4.68;2.15;;;23.70;39.30;;;;;;6178388;27;80804;-53
2020/12/25 08:11:34;;;;;;;3.78;1.80;;;23.70;39.90;;;;;;6175250;28;80617;-56
2020/12/25 08:14:34;;;;;;;3.08;1.80;;;23.80;39.80;;;;;;6176897;28;80901;-56
2020/12/25 08:17:35;;;;;;;4.93;2.45;;;23.80;40.20;;;;;;6178799;28;81182;-56
2020/12/25 08:20:35;;;;;;;6.20;2.25;;;23.80;40.30;;;;;;6172858;27;80284;-54
2020/12/25 08:23:36;;;;;;;3.70;2.33;;;23.80;40.80;;;;;;6167049;28;80576;-55
2020/12/25 08:26:37;;;;;;;7.32;2.25;;;23.40;41.90;;;;;;6171716;27;80389;-57
2020/12/25 08:29:37;;;;;;;7.68;2.45;;;23.70;41.60;;;;;;6175904;28;81902;-55
2020/12/25 08:32:38;;;;;;;4.15;2.67;;;23.70;41.60;;;;;;6167044;27;80863;-53
2020/12/25 08:35:38;;;;;;;3.10;2.22;;;23.70;42.20;;;;;;6170524;28;81355;-55
2020/12/25 08:38:39;;;;;;;6.18;2.40;;;23.90;43.00;;;;;;6169984;28;80717;-55
2020/12/25 08:41:39;;;;;;;9.27;2.20;;;23.80;43.70;;;;;;6175684;28;80420;-55
2020/12/25 08:44:40;;;;;;;4.97;2.25;;;23.80;45.90;;;;;;6176772;27;80695;-55
2020/12/25 08:47:40;;;;;;;2.85;2.05;;;23.80;45.70;;;;;;6177249;28;80558;-55
2020/12/25 08:50:41;;;;;;;6.45;2.47;;;23.80;45.40;;;;;;6172084;27;81076;-56
2020/12/25 08:53:41;;;;;;;8.05;2.30;;;23.70;45.20;;;;;;6176442;28;80769;-55
2020/12/25 08:56:42;;;;;;;7.35;2.95;;;23.70;45.30;;;;;;6174124;28;80756;-54
2020/12/25 08:59:42;;;;;;;2.80;2.20;;;23.70;46.70;;;;;;6163037;28;81670;-56
2020/12/25 09:02:43;;;;;;;4.07;2.22;;;23.80;48.50;;;;;;6160754;28;83348;-55
2020/12/25 09:05:43;;;;;;;3.35;2.20;;;23.80;49.20;;;;;;6178312;28;80143;-55
2020/12/25 09:08:44;;;;;;;5.25;3.03;;;23.80;50.20;;;;;;6181834;27;80518;-56
2020/12/25 09:11:44;;;;;;;4.20;2.65;;;23.80;50.90;;;;;;6180746;28;83158;-56
2020/12/25 09:14:45;;;;;;;4.03;2.10;;;23.80;51.10;;;;;;6173834;28;80507;-55
2020/12/25 09:17:45;;;;;;;8.50;2.85;;;23.90;51.30;;;;;;6180416;28;80319;-55
2020/12/25 09:20:46;;;;;;;6.75;2.47;;;23.90;50.70;;;;;;6177880;27;80584;-56
2020/12/25 09:23:46;;;;;;;4.07;2.35;;;23.80;50.50;;;;;;6180390;28;80380;-56
2020/12/25 09:26:47;;;;;;;4.70;2.28;;;23.90;50.30;;;;;;6175360;28;83474;-57
2020/12/25 09:29:48;;;;;;;6.97;2.85;;;23.80;49.70;;;;;;6180406;27;81449;-56
2020/12/25 09:32:48;;;;;;;4.30;2.08;;;23.80;49.40;;;;;;6180906;28;84877;-56
2020/12/25 09:35:49;;;;;;;4.00;2.20;;;23.80;49.90;;;;;;6179312;27;80715;-58
2020/12/25 09:38:49;;;;;;;5.78;2.20;;;23.90;50.00;;;;;;6181191;28;80573;-55
2020/12/25 09:41:50;;;;;;;5.25;2.45;;;23.80;48.90;;;;;;6180414;27;80978;-54
2020/12/25 09:44:50;;;;;;;4.03;2.58;;;23.80;48.20;;;;;;6176121;28;80709;-55
2020/12/25 09:47:51;;;;;;;5.32;2.65;;;23.80;47.70;;;;;;6180961;28;80982;-56
2020/12/25 09:50:51;;;;;;;5.15;2.28;;;23.80;47.20;;;;;;6177125;28;80387;-55
2020/12/25 09:53:52;;;;;;;4.45;2.58;;;23.70;47.10;;;;;;6180294;27;81072;-54
2020/12/25 09:56:52;;;;;;;6.53;2.67;;;23.70;46.60;;;;;;6181434;28;80884;-57
2020/12/25 09:59:53;;;;;;;5.25;2.60;;;23.70;46.00;;;;;;6180129;27;80352;-56
2020/12/25 10:02:53;;;;;;;5.53;2.80;;;23.70;45.50;;;;;;6180516;28;80733;-56
2020/12/25 10:05:54;;;;;;;6.80;2.67;;;23.60;45.40;;;;;;6178539;28;80549;-57
2020/12/25 10:08:54;;;;;;;8.00;2.45;;;23.70;44.70;;;;;;6172641;28;80592;-56
2020/12/25 10:11:55;;;;;;;3.55;2.38;;;23.70;44.60;;;;;;6181108;28;81076;-55
2020/12/25 10:14:55;;;;;;;15.38;2.80;;;23.60;43.70;;;;;;6178960;28;82488;-55
2020/12/25 10:17:56;;;;;;;7.82;2.38;;;23.60;43.10;;;;;;6178747;27;80594;-54
2020/12/25 10:20:56;;;;;;;14.45;2.30;;;23.60;42.90;;;;;;6172773;28;80360;-56
2020/12/25 10:23:57;;;;;;;5.78;2.65;;;23.50;42.70;;;;;;6178513;27;80904;-56
2020/12/25 10:26:57;;;;;;;5.45;2.00;;;23.60;42.80;;;;;;6178497;28;80421;-54
2020/12/25 10:29:58;;;;;;;4.97;2.10;;;23.50;42.70;;;;;;6178875;27;81679;-57
2020/12/25 10:32:58;;;;;;;6.05;2.17;;;23.60;42.80;;;;;;6180139;28;81212;-55
2020/12/25 10:36:00;;;;;;;8.10;2.38;;;23.60;42.90;;;;;;6178554;28;81196;-56
2020/12/25 10:39:00;;;;;;;8.20;2.53;;;23.60;42.90;;;;;;6170704;28;81654;-56
2020/12/25 10:42:01;;;;;;;13.93;2.13;;;23.60;42.70;;;;;;6178434;28;80539;-58
2020/12/25 10:45:01;;;;;;;4.07;2.45;;;23.60;42.70;;;;;;6178503;28;80333;-56
2020/12/25 10:48:02;;;;;;;8.27;2.70;;;23.50;42.30;;;;;;6180363;27;80756;-57
2020/12/25 10:51:02;;;;;;;14.82;2.67;;;23.50;41.90;;;;;;6176148;28;80731;-57
2020/12/25 10:54:03;;;;;;;6.05;2.35;;;23.50;41.80;;;;;;6188142;28;80370;-56
2020/12/25 10:57:03;;;;;;;9.48;2.42;;;23.40;41.70;;;;;;6196064;28;81119;-57
2020/12/25 11:00:04;;;;;;;4.95;2.47;;;23.40;41.50;;;;;;6194937;28;80724;-57
2020/12/25 11:03:04;;;;;;;7.35;2.25;;;23.40;41.50;;;;;;6164399;28;80690;-57
2020/12/25 11:06:05;;;;;;;3.50;2.50;;;23.40;41.70;;;;;;6165277;28;80590;-55
2020/12/25 11:09:06;;;;;;;6.93;2.67;;;23.40;41.80;;;;;;6177647;28;80613;-57
2020/12/25 11:12:06;;;;;;;3.55;2.13;;;23.50;42.30;;;;;;6170710;27;81510;-57
2020/12/25 11:15:07;;;;;;;3.88;1.95;;;23.50;42.40;;;;;;6140949;28;80846;-56
2020/12/25 11:18:07;;;;;;;5.05;2.65;;;23.50;42.00;;;;;;6163767;27;83907;-55
2020/12/25 11:21:08;;;;;;;4.63;2.42;;;23.50;42.00;;;;;;6137483;28;84858;-57
2020/12/25 11:24:08;;;;;;;5.63;2.50;;;23.50;42.20;;;;;;6177120;27;80798;-53
2020/12/25 11:27:09;;;;;;;4.38;2.53;;;23.60;41.90;;;;;;6177166;28;80641;-57
2020/12/25 11:30:09;;;;;;;3.70;2.47;;;23.60;41.20;;;;;;6177581;27;80936;-55
2020/12/25 11:33:10;;;;;;;6.88;2.97;;;23.50;41.50;;;;;;6173265;28;80732;-55
2020/12/25 11:36:10;;;;;;;5.65;3.00;;;23.50;41.30;;;;;;6174475;27;80075;-56
2020/12/25 11:39:11;;;;;;;8.30;3.83;;;23.50;40.50;;;;;;6165115;28;80475;-54
2020/12/25 11:42:12;;;;;;;4.68;3.03;;;23.60;40.90;;;;;;6177603;27;80614;-55
2020/12/25 11:45:12;;;;;;;7.32;3.22;;;23.60;40.00;;;;;;6175930;28;80681;-55
2020/12/25 11:48:13;;;;;;;5.07;3.13;;;23.60;40.20;;;;;;6160938;28;83001;-55
2020/12/25 11:51:13;;;;;;;4.93;3.03;;;23.70;39.80;;;;;;6168490;28;81251;-54
2020/12/25 11:54:14;;;;;;;8.85;2.90;;;23.70;39.20;;;;;;6178663;28;80958;-55
2020/12/25 11:57:14;;;;;;;5.25;2.85;;;23.80;39.00;;;;;;6174336;27;80906;-55
2020/12/25 12:00:15;;;;;;;5.30;3.63;;;23.80;38.90;;;;;;6178155;28;80671;-55
2020/12/25 12:03:15;;;;;;;6.57;3.35;;;23.90;38.60;;;;;;6171349;28;81029;-57
2020/12/25 12:06:16;;;;;;;5.55;3.70;;;23.90;38.10;;;;;;6178131;28;80713;-53
2020/12/25 12:09:16;;;;;;;4.75;3.20;;;24.00;38.10;;;;;;6177237;28;82074;-53
2020/12/25 12:12:17;;;;;;;6.03;2.78;;;23.90;38.20;;;;;;6178207;28;82003;-55
2020/12/25 12:15:17;;;;;;;5.05;3.22;;;24.00;38.20;;;;;;6166762;28;82523;-54
2020/12/25 12:18:18;;;;;;;3.55;2.40;;;23.90;38.00;;;;;;6173379;27;86778;-56
2020/12/25 12:21:18;;;;;;;6.22;3.33;;;24.00;38.10;;;;;;6176899;28;81511;-56
2020/12/25 12:24:19;;;;;;;5.85;3.20;;;23.90;37.60;;;;;;6176095;27;82147;-55
2020/12/25 12:27:19;;;;;;;5.88;3.42;;;23.90;37.30;;;;;;6183846;28;80994;-56
2020/12/25 12:30:20;;;;;;;7.40;3.80;;;23.90;37.10;;;;;;6187371;28;80713;-54
2020/12/25 12:33:20;;;;;;;6.97;4.35;;;23.90;37.20;;;;;;6177052;28;81760;-56
2020/12/25 12:36:21;;;;;;;6.82;4.15;;;23.90;37.00;;;;;;6172984;28;80448;-55
2020/12/25 12:39:21;;;;;;;8.95;4.57;;;24.00;37.00;;;;;;6174163;28;80558;-56
2020/12/25 12:42:22;;;;;;;8.35;4.90;;;24.00;37.00;;;;;;6184885;27;81674;-56
2020/12/25 12:45:23;;;;;;;8.25;4.65;;;24.00;36.90;;;;;;6181069;28;83248;-56
2020/12/25 12:48:23;;;;;;;7.95;4.35;;;24.00;37.00;;;;;;6177409;27;80624;-53
2020/12/25 12:51:24;;;;;;;6.63;4.20;;;24.10;37.10;;;;;;6181652;28;80863;-56
2020/12/25 12:54:25;;;;;;;7.80;4.85;;;24.10;37.10;;;;;;6182270;27;82749;-56
2020/12/25 12:57:26;;;;;;;6.72;4.63;;;24.00;36.70;;;;;;6184431;28;81094;-57
2020/12/25 13:00:27;;;;;;;9.65;5.55;;;23.90;36.40;;;;;;6184390;27;80488;-56
2020/12/25 13:03:27;;;;;;;10.18;5.95;;;23.90;36.30;;;;;;6183328;28;81206;-54
2020/12/25 13:06:28;;;;;;;9.00;5.30;;;23.90;36.70;;;;;;6181280;28;82872;-57
2020/12/25 13:09:28;;;;;;;9.00;5.35;;;23.80;36.90;;;;;;6182318;28;81104;-55
2020/12/25 13:12:29;;;;;;;8.00;5.47;;;23.90;37.40;;;;;;6179800;27;87793;-56
2020/12/25 13:15:29;;;;;;;9.38;5.10;;;23.90;37.40;;;;;;6184321;28;81372;-57
2020/12/25 13:18:30;;;;;;;9.35;6.03;;;23.90;37.60;;;;;;6182093;28;80562;-56
2020/12/25 13:21:30;;;;;;;9.93;6.32;;;23.80;37.40;;;;;;6183480;27;80665;-57
2020/12/25 13:24:31;;;;;;;9.90;5.60;;;23.80;37.60;;;;;;6174054;28;81556;-57
2020/12/25 13:27:31;;;;;;;8.90;5.82;;;23.80;38.10;;;;;;6180763;27;81045;-57
2020/12/25 13:30:32;;;;;;;10.02;5.78;;;23.80;38.00;;;;;;6184611;28;81204;-58
2020/12/25 13:33:33;;;;;;;11.13;6.60;;;23.80;38.20;;;;;;6184173;27;80832;-57
2020/12/25 13:36:33;;;;;;;12.32;7.60;;;23.80;38.10;;;;;;6183702;28;84469;-57
2020/12/25 13:39:34;;;;;;;10.85;6.47;;;23.70;38.10;;;;;;6184523;27;81236;-56
2020/12/25 13:42:34;;;;;;;11.52;6.63;;;23.70;38.20;;;;;;6182919;28;80587;-56
2020/12/25 13:45:35;;;;;;;12.40;5.97;;;23.60;38.30;;;;;;6183788;27;80629;-55
2020/12/25 13:48:35;;;;;;;11.25;6.43;;;23.60;38.50;;;;;;6179028;28;81054;-55
2020/12/25 13:51:36;;;;;;;13.02;6.82;;;23.60;38.20;;;;;;6160850;28;81633;-57
2020/12/25 13:54:36;;;;;;;11.57;7.03;;;23.60;38.20;;;;;;6153679;28;82089;-57
2020/12/25 13:57:37;;;;;;;10.07;6.18;;;23.60;38.10;;;;;;6173129;28;81847;-55
2020/12/25 14:00:38;;;;;;;14.85;6.50;;;23.60;38.60;;;;;;6178231;28;80121;-54
2020/12/25 14:03:38;;;;;;;10.75;6.35;;;23.70;39.00;;;;;;6178272;28;83259;-54
2020/12/25 14:06:39;;;;;;;11.05;6.45;;;23.60;38.90;;;;;;6179176;28;81778;-53
2020/12/25 14:09:39;;;;;;;11.38;6.32;;;23.60;39.10;;;;;;6177914;28;81605;-55
2020/12/25 14:12:40;;;;;;;9.85;6.22;;;23.60;39.50;;;;;;6180566;27;81458;-53
2020/12/25 14:15:40;;;;;;;10.13;6.18;;;23.70;39.60;;;;;;6189263;28;80672;-55
2020/12/25 14:18:42;;;;;;;10.25;5.78;;;23.70;40.10;;;;;;6179406;27;81375;-55
2020/12/25 14:21:43;;;;;;;14.90;6.50;;;23.70;40.40;;;;;;6179971;28;88358;-56
2020/12/25 14:24:44;;;;;;;12.02;6.25;;;23.70;41.30;;;;;;6182047;28;80600;-56
2020/12/25 14:27:44;;;;;;;9.50;5.70;;;23.80;41.60;;;;;;6179122;28;80755;-54
2020/12/25 14:30:45;;;;;;;9.57;5.88;;;23.80;42.80;;;;;;6177833;27;80585;-54
2020/12/25 14:33:45;;;;;;;11.65;5.53;;;23.80;43.10;;;;;;6179406;28;80446;-57
2020/12/25 14:36:46;;;;;;;8.10;4.78;;;23.80;43.30;;;;;;6179166;27;80805;-55
2020/12/25 14:39:46;;;;;;;9.10;5.18;;;23.80;44.40;;;;;;6178089;28;80647;-52
2020/12/25 14:42:47;;;;;;;8.65;4.53;;;23.80;44.70;;;;;;6177110;27;80783;-57
2020/12/25 14:45:47;;;;;;;9.43;4.53;;;23.80;44.60;;;;;;6179125;28;80172;-55
2020/12/25 14:48:48;;;;;;;8.43;4.60;;;23.80;44.60;;;;;;6178184;27;80557;-54
2020/12/25 14:51:49;;;;;;;9.73;4.35;;;23.80;44.20;;;;;;6156029;28;80344;-59
2020/12/25 14:54:49;;;;;;;11.45;4.50;;;23.80;44.80;;;;;;6152445;28;81086;-61
2020/12/25 14:57:50;;;;;;;9.55;4.18;;;23.70;43.90;;;;;;6175539;28;81316;-41
2020/12/25 15:00:50;;;;;;;8.80;3.90;;;23.80;43.80;;;;;;6176177;28;81459;-42
2020/12/25 15:03:51;;;;;;;9.55;4.43;;;23.80;43.30;;;;;;6174759;28;80383;-41
2020/12/25 15:06:51;;;;;;;9.50;4.32;;;23.80;42.00;;;;;;6176541;28;80728;-41
2020/12/25 15:09:52;;;;;;;9.25;4.85;;;23.70;41.50;;;;;;6176349;28;80921;-41
2020/12/25 15:12:53;;;;;;;6.43;3.85;;;23.80;41.40;;;;;;6174668;28;80789;-41
2020/12/25 15:15:53;;;;;;;7.93;3.75;;;23.80;40.70;;;;;;6174447;28;81591;-41
2020/12/25 15:18:54;;;;;;;7.28;3.97;;;23.70;40.70;;;;;;6174998;28;81894;-42
2020/12/25 15:21:54;;;;;;;5.60;3.67;;;23.70;40.20;;;;;;6173023;27;80731;-42
2020/12/25 15:24:55;;;;;;;8.18;4.00;;;23.80;40.40;;;;;;6176991;28;83312;-41
2020/12/25 15:27:55;;;;;;;7.28;3.67;;;23.80;40.30;;;;;;6154972;27;81618;-42
2020/12/25 15:30:56;;;;;;;7.05;4.03;;;23.70;39.70;;;;;;6177709;28;81019;-41
2020/12/25 15:33:56;;;;;;;8.45;4.22;;;23.70;39.40;;;;;;6175646;28;82183;-41
2020/12/25 15:37:00;;;;;;;6.03;3.25;;;23.70;39.40;;;;;;6178183;27;80850;-40
2020/12/25 15:40:01;;;;;;;9.60;3.72;;;23.60;39.10;;;;;;6176151;28;81769;-41